Keyport, Washington
Current Conditions -  °F | °C
As of 7:15 AM on Thursday 23 Oct 2014 (Local Time) from KPWT Reporting Station
Broken Clouds Broken Clouds  
Wind Chill: 10°   Ceiling: 900
Heat Index: 10°   Visibility: 10mi
Dew Point:   Wind: 8mph
Humidity: 94%   Direction: 170°S
Pressure: 29.73"   Gusts: NA
Location:  47.7°N, 122.62°W
Report Text: KPWT 231415Z AUTO 17007KT 10SM BKN009 BKN050 10/09 A2973 RMK AO1
Loading
Personal Weather Stations






























Interactive Weather Map
Tropical Storm Tracking
New forecast layout! Learn more

10-Day Weather Forecast

Advertisements
Track Severe Weather on mobile